Time;durP1;ratioP1;P1;durP2;ratioP2;P2;SDS_P1;SDS_P2;PMS_P1;PMS_P2;Temp;Humidity;BMP_temperature;BMP_pressure;BME280_temperature;BME280_humidity;BME280_pressure;Samples;Min_cycle;Max_cycle;Signal;HPM_P1;HPM_P2
2023/06/23 00:01:51;;;;;;;;;;;;;;;10.03;100.00;99866.63;5115759;28;20313;-81
2023/06/23 00:04:16;;;;;;;;;;;;;;;10.09;100.00;99871.66;5116038;27;20396;-81
2023/06/23 00:06:42;;;;;;;;;;;;;;;10.26;100.00;99878.91;5115766;28;19927;-81
2023/06/23 00:09:13;;;;;;;;;;;;;;;10.10;100.00;99873.38;5118025;27;19931;-81
2023/06/23 00:11:40;;;;;;;;;;;;;;;10.13;100.00;99873.25;5119189;27;19977;-81
2023/06/23 00:14:06;;;;;;;;;;;;;;;9.98;100.00;99875.59;5116582;28;19920;-81
2023/06/23 00:16:31;;;;;;;;;;;;;;;9.90;100.00;99877.66;5116137;28;20263;-81
2023/06/23 05:12:37;;;;;;;;;;;;;;;8.87;100.00;100156.22;4928827;28;19962;-82
2023/06/23 05:15:04;;;;;;;;;;;;;;;8.85;100.00;100161.56;4954538;29;19926;-82
2023/06/23 05:17:31;;;;;;;;;;;;;;;8.94;100.00;100167.50;4951541;29;20536;-81
2023/06/23 05:19:57;;;;;;;;;;;;;;;8.89;100.00;100171.13;4954459;29;19918;-83
2023/06/23 05:22:25;;;;;;;;;;;;;;;9.01;100.00;100166.38;4955671;28;19918;-82
2023/06/23 05:24:54;;;;;;;;;;;;;;;8.95;100.00;100174.50;4953947;29;19927;-82
2023/06/23 05:27:20;;;;;;;;;;;;;;;8.97;100.00;100173.56;4954834;28;19965;-82
2023/06/23 05:29:47;;;;;;;;;;;;;;;8.93;100.00;100179.84;4955361;29;20055;-82
2023/06/23 05:32:14;;;;;;;;;;;;;;;8.84;100.00;100186.28;4955516;28;19961;-82
2023/06/23 05:34:40;;;;;;;;;;;;;;;8.93;100.00;100178.97;4953474;29;19966;-82
2023/06/23 05:37:06;;;;;;;;;;;;;;;8.90;100.00;100185.19;4955537;29;19961;-82
2023/06/23 05:39:33;;;;;;;;;;;;;;;8.95;100.00;100188.59;4955410;28;19969;-82
2023/06/23 05:41:59;;;;;;;;;;;;;;;8.92;100.00;100188.69;4951907;29;19918;-82
2023/06/23 05:44:24;;;;;;;;;;;;;;;8.99;100.00;100190.22;4953980;29;19929;-83
2023/06/23 05:46:53;;;;;;;;;;;;;;;8.98;100.00;100195.56;4953976;29;19926;-82
2023/06/23 05:49:20;;;;;;;;;;;;;;;8.89;100.00;100200.22;4955312;28;19919;-82
2023/06/23 05:51:52;;;;;;;;;;;;;;;8.92;100.00;100201.91;4953650;29;20462;-81
2023/06/23 05:54:19;;;;;;;;;;;;;;;8.93;100.00;100200.97;4955091;29;19926;-82
2023/06/23 05:56:48;;;;;;;;;;;;;;;9.05;100.00;100194.47;4953704;28;19973;-82
2023/06/23 05:59:32;;;;;;;;;;;;;;;9.15;100.00;100206.50;4953188;29;20506;-82
2023/06/23 06:01:59;;;;;;;;;;;;;;;9.16;100.00;100207.34;4954960;29;19977;-82
2023/06/23 06:04:26;;;;;;;;;;;;;;;9.23;100.00;100208.91;4954949;28;19923;-82
2023/06/23 06:06:52;;;;;;;;;;;;;;;9.22;100.00;100204.53;4954052;29;19919;-82
2023/06/23 06:09:17;;;;;;;;;;;;;;;9.25;100.00;100213.25;4949161;29;19981;-82
2023/06/23 06:11:44;;;;;;;;;;;;;;;9.12;100.00;100214.50;4952182;29;19922;-82
2023/06/23 06:14:11;;;;;;;;;;;;;;;9.20;100.00;100225.72;4954597;28;19922;-82
2023/06/23 06:16:37;;;;;;;;;;;;;;;9.13;100.00;100223.34;4954821;28;19925;-82
2023/06/23 06:19:02;;;;;;;;;;;;;;;9.17;100.00;100233.75;4953962;29;20293;-82
2023/06/23 06:21:28;;;;;;;;;;;;;;;9.24;100.00;100237.09;4954359;28;19925;-83
2023/06/23 06:23:54;;;;;;;;;;;;;;;9.19;100.00;100245.16;4953271;29;19923;-82
2023/06/23 06:26:20;;;;;;;;;;;;;;;9.12;100.00;100240.09;4953180;29;20376;-83
2023/06/23 06:28:46;;;;;;;;;;;;;;;9.08;100.00;100255.19;4953138;29;19944;-83
2023/06/23 06:31:12;;;;;;;;;;;;;;;9.17;100.00;100246.09;4954174;29;19919;-82
2023/06/23 06:33:39;;;;;;;;;;;;;;;9.26;100.00;100248.47;4954627;28;19973;-83
2023/06/23 06:36:06;;;;;;;;;;;;;;;9.35;100.00;100253.50;4953664;29;20363;-83
2023/06/23 06:38:35;;;;;;;;;;;;;;;9.24;100.00;100259.09;4954477;28;19919;-89
2023/06/23 06:41:02;;;;;;;;;;;;;;;9.37;100.00;100259.59;4952861;29;19942;-85
2023/06/23 06:43:28;;;;;;;;;;;;;;;9.30;100.00;100263.31;4953110;29;20297;-88
2023/06/23 06:45:53;;;;;;;;;;;;;;;9.33;100.00;100270.31;4954244;29;20013;-87
2023/06/23 06:48:19;;;;;;;;;;;;;;;9.20;100.00;100268.03;4954308;28;19929;-87
2023/06/23 06:50:45;;;;;;;;;;;;;;;9.33;100.00;100273.81;4953319;29;20290;-85
2023/06/23 06:53:10;;;;;;;;;;;;;;;9.36;100.00;100272.88;4952704;29;20017;-87
2023/06/23 06:55:38;;;;;;;;;;;;;;;9.26;100.00;100278.41;4953061;28;20420;-83
2023/06/23 06:58:03;;;;;;;;;;;;;;;9.26;100.00;100272.28;4954158;28;20251;-83
2023/06/23 07:00:30;;;;;;;;;;;;;;;9.19;100.00;100279.53;4952790;29;19918;-82
2023/06/23 07:02:55;;;;;;;;;;;;;;;9.29;100.00;100280.13;4951862;29;19934;-83
2023/06/23 08:00:53;;;;;;;;;;;;;;;9.51;100.00;100306.78;5182130;23;19934;-80
2023/06/23 08:03:18;;;;;;;;;;;;;;;9.68;100.00;100305.41;4979276;28;20292;-80
2023/06/23 08:05:44;;;;;;;;;;;;;;;9.53;100.00;100312.03;4986538;28;19925;-80
2023/06/23 08:08:09;;;;;;;;;;;;;;;9.42;100.00;100309.72;4985809;28;19964;-80
2023/06/23 08:10:35;;;;;;;;;;;;;;;9.35;100.00;100306.38;4983111;28;19957;-79
2023/06/23 08:13:00;;;;;;;;;;;;;;;9.25;100.00;100312.84;4981503;28;19927;-79
2023/06/23 08:15:26;;;;;;;;;;;;;;;9.35;100.00;100316.06;4977906;28;19930;-79
2023/06/23 08:17:51;;;;;;;;;;;;;;;9.35;100.00;100318.72;4985773;28;20353;-80
2023/06/23 08:20:17;;;;;;;;;;;;;;;9.23;100.00;100327.91;4984254;28;21653;-80
2023/06/23 08:22:43;;;;;;;;;;;;;;;9.28;100.00;100333.91;4984392;28;19933;-80
2023/06/23 08:25:08;;;;;;;;;;;;;;;9.25;100.00;100329.59;4983275;28;19926;-79
2023/06/23 08:27:33;;;;;;;;;;;;;;;9.27;100.00;100326.91;4984339;28;19926;-80
2023/06/23 08:29:59;;;;;;;;;;;;;;;9.27;100.00;100340.13;4983039;28;19922;-80
2023/06/23 08:32:24;;;;;;;;;;;;;;;9.24;100.00;100327.84;4982113;28;19925;-82
2023/06/23 08:34:49;;;;;;;;;;;;;;;9.15;100.00;100343.97;4985407;28;19973;-79
2023/06/23 08:37:15;;;;;;;;;;;;;;;9.30;100.00;100342.66;4984563;28;19926;-79
2023/06/23 08:39:40;;;;;;;;;;;;;;;9.24;100.00;100343.72;4981736;28;20393;-80
2023/06/23 08:42:06;;;;;;;;;;;;;;;9.20;100.00;100347.34;4983554;28;19929;-80
2023/06/23 08:44:32;;;;;;;;;;;;;;;9.22;100.00;100350.84;4983799;28;19922;-80
2023/06/23 08:47:01;;;;;;;;;;;;;;;9.19;100.00;100344.75;4985311;28;19918;-80
2023/06/23 08:49:28;;;;;;;;;;;;;;;9.34;100.00;100357.53;4981844;28;19926;-82
2023/06/23 08:51:54;;;;;;;;;;;;;;;9.39;100.00;100354.75;4982852;28;20444;-80
2023/06/23 08:54:20;;;;;;;;;;;;;;;9.30;100.00;100357.66;4985303;28;19918;-80
2023/06/23 08:56:45;;;;;;;;;;;;;;;9.51;100.00;100361.47;4980040;28;20389;-80
2023/06/23 08:59:12;;;;;;;;;;;;;;;9.30;100.00;100357.66;4980323;28;19922;-79
2023/06/23 09:01:37;;;;;;;;;;;;;;;9.21;100.00;100357.03;4981027;28;19926;-80
2023/06/23 09:04:03;;;;;;;;;;;;;;;9.34;100.00;100367.25;4981448;28;19922;-80
2023/06/23 09:06:28;;;;;;;;;;;;;;;9.31;100.00;100370.00;4982100;28;19964;-80
2023/06/23 09:08:53;;;;;;;;;;;;;;;9.27;100.00;100367.44;4983992;28;19965;-80
2023/06/23 09:11:19;;;;;;;;;;;;;;;9.36;100.00;100362.78;4981220;28;19933;-80
2023/06/23 09:13:45;;;;;;;;;;;;;;;9.41;100.00;100360.88;4982047;28;20411;-80
2023/06/23 09:16:11;;;;;;;;;;;;;;;9.54;100.00;100362.25;4983842;28;19926;-80
2023/06/23 09:18:40;;;;;;;;;;;;;;;9.34;100.00;100367.25;4985050;28;20013;-80
2023/06/23 09:21:06;;;;;;;;;;;;;;;9.49;100.00;100369.44;4982307;28;19918;-81
2023/06/23 09:23:33;;;;;;;;;;;;;;;9.48;100.00;100373.03;4980441;28;19945;-80
2023/06/23 09:25:59;;;;;;;;;;;;;;;9.42;100.00;100379.34;4984861;28;19922;-81
2023/06/23 09:28:28;;;;;;;;;;;;;;;9.48;100.00;100375.66;4979232;28;20033;-80
2023/06/23 09:30:55;;;;;;;;;;;;;;;9.50;100.00;100375.63;4981156;28;19921;-81
2023/06/23 09:33:20;;;;;;;;;;;;;;;9.36;100.00;100357.50;4983730;28;19926;-80
2023/06/23 09:35:49;;;;;;;;;;;;;;;9.33;100.00;100371.66;4981326;28;19948;-80
2023/06/23 09:38:18;;;;;;;;;;;;;;;9.45;100.00;100373.97;4983834;28;20370;-80
2023/06/23 09:40:44;;;;;;;;;;;;;;;9.23;100.00;100372.84;4981072;28;19922;-80
2023/06/23 09:43:09;;;;;;;;;;;;;;;9.28;100.00;100381.50;4982357;28;20266;-80
2023/06/23 09:45:34;;;;;;;;;;;;;;;9.24;100.00;100383.38;4978298;28;20404;-79
2023/06/23 09:47:59;;;;;;;;;;;;;;;9.22;100.00;100379.91;4981624;28;19933;-79
2023/06/23 09:50:27;;;;;;;;;;;;;;;9.42;100.00;100374.03;4979673;28;20005;-79
2023/06/23 09:53:04;;;;;;;;;;;;;;;9.34;100.00;100375.19;4980221;28;19922;-79
2023/06/23 09:55:30;;;;;;;;;;;;;;;9.16;100.00;100377.44;4982097;28;20020;-80
2023/06/23 09:57:56;;;;;;;;;;;;;;;9.12;100.00;100377.56;4998918;28;20147;-81
2023/06/23 10:00:28;;;;;;;;;;;;;;;9.04;100.00;100373.34;4979677;28;20447;-80
2023/06/23 10:02:54;;;;;;;;;;;;;;;8.99;100.00;100369.97;4983143;28;19926;-80
2023/06/23 10:05:22;;;;;;;;;;;;;;;9.07;100.00;100372.41;4981939;28;19929;-81
2023/06/23 10:07:47;;;;;;;;;;;;;;;9.13;100.00;100372.22;4980127;28;19922;-80
2023/06/23 10:10:14;;;;;;;;;;;;;;;9.18;100.00;100374.75;4981226;28;20498;-80
2023/06/23 10:12:41;;;;;;;;;;;;;;;9.08;100.00;100379.44;4982706;28;19922;-80
2023/06/23 10:15:07;;;;;;;;;;;;;;;9.05;100.00;100364.50;4982165;28;19922;-81
2023/06/23 10:17:32;;;;;;;;;;;;;;;9.12;100.00;100372.28;4976481;28;19980;-80
2023/06/23 10:19:58;;;;;;;;;;;;;;;9.13;100.00;100366.94;4982065;28;19919;-80
2023/06/23 10:22:24;;;;;;;;;;;;;;;9.04;100.00;100373.34;4983695;28;19922;-81
2023/06/23 10:24:51;;;;;;;;;;;;;;;9.22;100.00;100382.56;4981776;28;19918;-81
2023/06/23 10:27:24;;;;;;;;;;;;;;;9.22;100.00;100385.22;4982364;28;20389;-80
2023/06/23 10:29:52;;;;;;;;;;;;;;;9.21;100.00;100375.53;4980726;28;19929;-81
2023/06/23 10:32:19;;;;;;;;;;;;;;;9.19;100.00;100381.75;4981969;28;20262;-82
2023/06/23 10:34:45;;;;;;;;;;;;;;;9.16;100.00;100382.72;4977844;28;19929;-80
2023/06/23 10:37:14;;;;;;;;;;;;;;;9.12;100.00;100378.41;4977588;28;19926;-81
2023/06/23 10:39:40;;;;;;;;;;;;;;;9.21;100.00;100380.81;4982432;28;20282;-80
2023/06/23 10:42:07;;;;;;;;;;;;;;;9.16;100.00;100372.16;4980606;28;19941;-81
2023/06/23 10:44:33;;;;;;;;;;;;;;;9.01;100.00;100368.13;4980884;28;19928;-82
2023/06/23 10:46:58;;;;;;;;;;;;;;;9.25;100.00;100369.25;4981959;28;19918;-81
2023/06/23 10:49:23;;;;;;;;;;;;;;;9.13;100.00;100366.94;4981238;28;19926;-81
2023/06/23 10:51:49;;;;;;;;;;;;;;;9.04;100.00;100367.19;4981375;28;19926;-81
2023/06/23 10:54:24;;;;;;;;;;;;;;;9.16;100.00;100374.78;4975047;28;19933;-81
2023/06/23 10:56:52;;;;;;;;;;;;;;;9.10;100.00;100374.97;4976748;28;19922;-80
2023/06/23 10:59:18;;;;;;;;;;;;;;;9.18;100.00;100380.91;4978145;28;19922;-81
2023/06/23 11:01:59;;;;;;;;;;;;;;;9.38;100.00;100371.53;4982214;28;19930;-82
2023/06/23 11:04:31;;;;;;;;;;;;;;;9.22;100.00;100382.56;4982822;28;20388;-81
2023/06/23 11:07:02;;;;;;;;;;;;;;;9.22;100.00;100371.09;4978442;28;19937;-81
2023/06/23 11:09:52;;;;;;;;;;;;;;;9.25;100.00;100376.31;4979347;28;19922;-83
2023/06/23 11:12:39;;;;;;;;;;;;;;;9.32;100.00;100369.94;4980131;28;19926;-82
2023/06/23 11:15:16;;;;;;;;;;;;;;;9.22;100.00;100365.81;4978028;28;19980;-82
2023/06/23 11:17:42;;;;;;;;;;;;;;;9.36;100.00;100371.56;4979797;28;19918;-82
2023/06/23 11:20:26;;;;;;;;;;;;;;;9.29;100.00;100361.25;4979456;28;19939;-83
2023/06/23 11:23:05;;;;;;;;;;;;;;;9.20;100.00;100372.94;4980634;28;20002;-81
2023/06/23 11:25:36;;;;;;;;;;;;;;;9.17;100.00;100371.22;4980763;28;20024;-81
2023/06/23 11:28:20;;;;;;;;;;;;;;;9.16;100.00;100373.91;4978172;28;19929;-81
2023/06/23 11:30:52;;;;;;;;;;;;;;;9.10;100.00;100372.31;4982100;28;19944;-84
2023/06/23 11:33:24;;;;;;;;;;;;;;;9.09;100.00;100370.56;4977401;28;20024;-81
2023/06/23 11:35:50;;;;;;;;;;;;;;;9.07;100.00;100361.81;4979808;28;20012;-81
2023/06/23 11:38:15;;;;;;;;;;;;;;;9.04;100.00;100372.47;4980775;28;20025;-81
2023/06/23 11:40:41;;;;;;;;;;;;;;;9.11;100.00;100357.31;4975605;28;19926;-82
2023/06/23 11:43:06;;;;;;;;;;;;;;;9.03;100.00;100361.06;4981427;28;19922;-81
2023/06/23 11:45:32;;;;;;;;;;;;;;;9.08;100.00;100368.84;4981432;28;19918;-81
2023/06/23 11:47:57;;;;;;;;;;;;;;;9.14;100.00;100368.66;4981627;28;20277;-81
2023/06/23 11:50:22;;;;;;;;;;;;;;;9.20;100.00;100368.50;4979575;28;19958;-81
2023/06/23 11:52:48;;;;;;;;;;;;;;;9.09;100.00;100357.34;4978777;28;20053;-81
2023/06/23 11:55:13;;;;;;;;;;;;;;;9.18;100.00;100372.97;4982248;28;19941;-80
2023/06/23 11:57:38;;;;;;;;;;;;;;;9.05;100.00;100366.28;4980454;28;20763;-81
2023/06/23 12:00:05;;;;;;;;;;;;;;;9.04;100.00;100359.25;4981214;28;19917;-80
2023/06/23 12:02:30;;;;;;;;;;;;;;;9.01;100.00;100360.19;4980097;28;19925;-81
2023/06/23 12:04:59;;;;;;;;;;;;;;;9.04;100.00;100367.19;4980360;28;19968;-80
2023/06/23 12:07:28;;;;;;;;;;;;;;;9.09;100.00;100371.47;4980675;28;20359;-81
2023/06/23 12:09:54;;;;;;;;;;;;;;;9.12;100.00;100359.91;4981370;28;19928;-80
2023/06/23 12:12:19;;;;;;;;;;;;;;;9.10;100.00;100361.75;4980736;28;19926;-81
2023/06/23 12:14:44;;;;;;;;;;;;;;;9.09;100.00;100355.59;4978699;28;19922;-78
2023/06/23 12:17:10;;;;;;;;;;;;;;;9.15;100.00;100354.53;4981924;28;19928;-80
2023/06/23 12:19:36;;;;;;;;;;;;;;;9.27;100.00;100364.78;4979504;28;20285;-81
2023/06/23 12:22:02;;;;;;;;;;;;;;;9.39;100.00;100362.69;4983737;28;20271;-80
2023/06/23 12:24:31;;;;;;;;;;;;;;;9.48;100.00;100367.72;4985590;28;20012;-80
2023/06/23 12:26:57;;;;;;;;;;;;;;;9.43;100.00;100364.34;4982905;28;19933;-81
2023/06/23 12:29:22;;;;;;;;;;;;;;;9.40;100.00;100356.50;4983048;28;19926;-80
2023/06/23 12:31:57;;;;;;;;;;;;;;;9.41;100.00;100360.88;4978740;28;19929;-80
2023/06/23 12:34:29;;;;;;;;;;;;;;;9.53;100.00;100357.88;4984600;28;19965;-81
2023/06/23 12:37:01;;;;;;;;;;;;;;;9.47;100.00;100363.34;4984326;28;20035;-80
2023/06/23 12:39:28;;;;;;;;;;;;;;;9.41;100.00;100366.16;4981669;28;19926;-80
2023/06/23 12:41:53;;;;;;;;;;;;;;;9.31;100.00;100359.41;4984931;28;20054;-81
2023/06/23 12:44:21;;;;;;;;;;;;;;;9.33;100.00;100357.59;4983914;28;20360;-80
2023/06/23 12:46:46;;;;;;;;;;;;;;;9.32;100.00;100353.19;4984385;28;20197;-80
2023/06/23 12:49:11;;;;;;;;;;;;;;;9.23;100.00;100347.25;4983988;28;20455;-80
2023/06/23 12:51:38;;;;;;;;;;;;;;;9.37;100.00;100348.66;4980672;28;20021;-85
2023/06/23 12:54:03;;;;;;;;;;;;;;;9.26;100.00;100354.25;4980113;28;19926;-80
2023/06/23 12:56:29;;;;;;;;;;;;;;;9.25;100.00;100349.84;4985169;28;19922;-80
2023/06/23 12:58:54;;;;;;;;;;;;;;;9.24;100.00;100340.22;4982221;28;19930;-80
2023/06/23 13:01:19;;;;;;;;;;;;;;;9.24;100.00;100342.84;4981164;28;19948;-81
2023/06/23 13:03:46;;;;;;;;;;;;;;;9.18;100.00;100341.25;4982656;28;19926;-80
2023/06/23 13:06:11;;;;;;;;;;;;;;;9.23;100.00;100330.53;4983759;28;19914;-80
2023/06/23 13:08:37;;;;;;;;;;;;;;;9.35;100.00;100331.94;4980253;28;20005;-80
2023/06/23 13:11:02;;;;;;;;;;;;;;;9.36;100.00;100336.34;4982670;28;19965;-80
2023/06/23 13:13:27;;;;;;;;;;;;;;;9.24;100.00;100333.13;4983815;28;19922;-80
2023/06/23 13:15:53;;;;;;;;;;;;;;;9.37;100.00;100341.59;4981047;28;19929;-80
2023/06/23 13:18:18;;;;;;;;;;;;;;;9.37;100.00;100333.66;4975923;28;19922;-80
2023/06/23 13:20:43;;;;;;;;;;;;;;;9.30;100.00;100337.38;4980478;28;19926;-80
2023/06/23 13:23:12;;;;;;;;;;;;;;;9.37;100.00;100327.50;4967077;28;19925;-81
2023/06/23 13:25:37;;;;;;;;;;;;;;;9.27;100.00;100327.75;4983272;28;19922;-80
2023/06/23 13:28:02;;;;;;;;;;;;;;;9.25;100.00;100323.41;4979709;28;19929;-80
2023/06/23 13:30:27;;;;;;;;;;;;;;;9.34;100.00;100338.16;4977171;28;19926;-80
2023/06/23 13:32:53;;;;;;;;;;;;;;;9.31;100.00;100325.88;4983085;28;19936;-80
2023/06/23 13:35:18;;;;;;;;;;;;;;;9.34;100.00;100320.50;4982572;28;20016;-80
2023/06/23 13:37:43;;;;;;;;;;;;;;;9.42;100.00;100328.22;4983528;28;19917;-79
2023/06/23 13:40:10;;;;;;;;;;;;;;;9.34;100.00;100325.81;4983276;28;20061;-80
2023/06/23 13:42:35;;;;;;;;;;;;;;;9.45;100.00;100334.28;4983127;28;20361;-80
2023/06/23 13:45:01;;;;;;;;;;;;;;;9.38;100.00;100329.22;4982870;28;19913;-80
2023/06/23 13:47:26;;;;;;;;;;;;;;;9.34;100.00;100322.31;4982533;28;19925;-82
2023/06/23 13:49:52;;;;;;;;;;;;;;;9.40;100.00;100319.47;4983022;28;20001;-80
2023/06/23 13:52:17;;;;;;;;;;;;;;;9.36;100.00;100321.31;4979465;28;19923;-80
2023/06/23 13:54:42;;;;;;;;;;;;;;;9.35;100.00;100321.38;4982685;28;20012;-79
2023/06/23 13:57:08;;;;;;;;;;;;;;;9.45;100.00;100322.84;4982464;28;19918;-80
2023/06/23 13:59:34;;;;;;;;;;;;;;;9.55;100.00;100311.06;4971511;28;20001;-80
2023/06/23 14:01:59;;;;;;;;;;;;;;;9.56;100.00;100307.53;4978552;28;20032;-79
2023/06/23 14:04:25;;;;;;;;;;;;;;;9.61;100.00;100305.59;4981972;28;19922;-80
2023/06/23 14:06:51;;;;;;;;;;;;;;;9.73;100.00;100317.59;4978320;28;19922;-81
2023/06/23 14:09:16;;;;;;;;;;;;;;;9.51;100.00;100305.91;4978418;28;19932;-81
2023/06/23 14:11:42;;;;;;;;;;;;;;;9.54;100.00;100314.66;4982039;28;20332;-86
2023/06/23 14:14:08;;;;;;;;;;;;;;;9.44;100.00;100313.16;4980814;28;19957;-80
2023/06/23 14:16:33;;;;;;;;;;;;;;;9.40;100.00;100316.84;4979661;28;19925;-78
2023/06/23 14:18:59;;;;;;;;;;;;;;;9.61;100.00;100310.88;4982060;28;19948;-80
2023/06/23 14:21:24;;;;;;;;;;;;;;;9.37;100.00;100320.41;4998513;28;20365;-81
2023/06/23 14:23:49;;;;;;;;;;;;;;;9.47;100.00;100323.66;4983344;28;19924;-81
2023/06/23 14:26:15;;;;;;;;;;;;;;;9.52;100.00;100315.59;4979021;28;19922;-81
2023/06/23 14:28:40;;;;;;;;;;;;;;;9.36;100.00;100316.03;4978778;28;19976;-81
2023/06/23 14:31:07;;;;;;;;;;;;;;;9.48;100.00;100324.50;4978256;28;19928;-81
2023/06/23 14:33:32;;;;;;;;;;;;;;;9.47;100.00;100321.00;4982348;28;19929;-80
2023/06/23 14:35:58;;;;;;;;;;;;;;;9.47;100.00;100326.31;4979271;28;19922;-80
2023/06/23 14:38:23;;;;;;;;;;;;;;;9.39;100.00;100321.25;4979805;28;19972;-81
2023/06/23 14:40:49;;;;;;;;;;;;;;;9.40;100.00;100316.84;4981936;28;19929;-81
2023/06/23 14:43:14;;;;;;;;;;;;;;;9.47;100.00;100328.09;4980938;28;20376;-81
2023/06/23 14:45:39;;;;;;;;;;;;;;;9.38;100.00;100329.22;4980711;28;19918;-81
2023/06/23 14:48:05;;;;;;;;;;;;;;;9.39;100.00;100325.66;4979552;28;19930;-81
2023/06/23 14:50:31;;;;;;;;;;;;;;;9.37;100.00;100327.50;4982835;28;19925;-81
2023/06/23 14:52:57;;;;;;;;;;;;;;;9.39;100.00;100325.66;4979718;28;19922;-81
2023/06/23 14:55:23;;;;;;;;;;;;;;;9.39;100.00;100331.81;4978636;28;20366;-81
2023/06/23 14:57:48;;;;;;;;;;;;;;;9.40;100.00;100330.06;4979801;28;19940;-80
2023/06/23 15:00:14;;;;;;;;;;;;;;;9.31;100.00;100327.69;4979105;28;20332;-84
2023/06/23 15:02:40;;;;;;;;;;;;;;;9.30;100.00;100337.38;4979637;28;19933;-81
2023/06/23 15:05:05;;;;;;;;;;;;;;;9.29;100.00;100332.16;4983297;28;20000;-80
2023/06/23 15:07:30;;;;;;;;;;;;;;;9.40;100.00;100338.84;4982613;28;20377;-80
2023/06/23 15:09:56;;;;;;;;;;;;;;;9.34;100.00;100338.16;4977683;28;19968;-81
2023/06/23 15:12:21;;;;;;;;;;;;;;;9.24;100.00;100345.50;4979569;28;19922;-80
2023/06/23 15:14:46;;;;;;;;;;;;;;;9.22;100.00;100342.00;4978065;28;19948;-81
2023/06/23 15:17:12;;;;;;;;;;;;;;;9.24;100.00;100338.44;4980528;28;20665;-79
2023/06/23 15:19:37;;;;;;;;;;;;;;;9.19;100.00;100339.44;4979735;28;19969;-82
2023/06/23 15:22:03;;;;;;;;;;;;;;;9.15;100.00;100330.75;4980655;28;19968;-81
2023/06/23 15:24:28;;;;;;;;;;;;;;;9.17;100.00;100336.84;4976651;28;19926;-79
2023/06/23 15:26:53;;;;;;;;;;;;;;;9.19;100.00;100328.88;4980801;28;20327;-81
2023/06/23 15:29:19;;;;;;;;;;;;;;;9.27;100.00;100327.75;4978885;28;20334;-81
2023/06/23 15:31:44;;;;;;;;;;;;;;;9.27;100.00;100333.06;4969835;28;19926;-80
2023/06/23 15:34:10;;;;;;;;;;;;;;;9.24;100.00;100325.19;4971046;28;19973;-80
2023/06/23 15:36:35;;;;;;;;;;;;;;;9.36;100.00;100331.03;4978152;28;19925;-81
2023/06/23 15:39:00;;;;;;;;;;;;;;;9.35;100.00;100329.31;4981702;28;19929;-81
2023/06/23 15:41:29;;;;;;;;;;;;;;;9.39;100.00;100320.38;4975130;28;19929;-81
2023/06/23 15:43:56;;;;;;;;;;;;;;;9.27;100.00;100327.75;4966563;28;19950;-81
2023/06/23 15:46:22;;;;;;;;;;;;;;;9.22;100.00;100316.47;4974325;28;19931;-81
2023/06/23 15:48:47;;;;;;;;;;;;;;;9.16;100.00;100316.63;4977141;28;20090;-81
2023/06/23 15:51:13;;;;;;;;;;;;;;;9.07;100.00;100324.81;4981735;28;19930;-80
2023/06/23 15:53:38;;;;;;;;;;;;;;;9.16;100.00;100324.56;4974671;28;20343;-78
2023/06/23 15:56:04;;;;;;;;;;;;;;;9.28;100.00;100323.31;4980821;28;19922;-82
2023/06/23 15:58:29;;;;;;;;;;;;;;;9.29;100.00;100324.22;4982664;28;19926;-81
2023/06/23 16:00:55;;;;;;;;;;;;;;;9.19;100.00;100321.84;4980793;28;20348;-81
2023/06/23 16:03:20;;;;;;;;;;;;;;;9.19;100.00;100323.59;4981485;28;20015;-81
2023/06/23 16:05:45;;;;;;;;;;;;;;;9.36;100.00;100325.75;4980457;28;20299;-81
2023/06/23 16:08:12;;;;;;;;;;;;;;;9.42;100.00;100326.44;4977227;28;19930;-81
2023/06/23 16:10:38;;;;;;;;;;;;;;;9.39;100.00;100326.53;4972848;28;19926;-81
2023/06/23 16:13:03;;;;;;;;;;;;;;;9.37;100.00;100325.72;4982170;28;19933;-81
2023/06/23 16:15:28;;;;;;;;;;;;;;;9.37;100.00;100325.72;4976802;28;19926;-81
2023/06/23 16:17:54;;;;;;;;;;;;;;;9.39;100.00;100326.53;4973057;28;19945;-81
2023/06/23 16:20:19;;;;;;;;;;;;;;;9.44;100.00;100319.34;4980064;28;19922;-78
2023/06/23 16:22:45;;;;;;;;;;;;;;;9.38;100.00;100314.22;4979245;28;20021;-81
2023/06/23 16:25:10;;;;;;;;;;;;;;;9.29;100.00;100326.88;4979766;28;20012;-82
2023/06/23 16:27:35;;;;;;;;;;;;;;;9.32;100.00;100318.81;4982824;28;19922;-81
2023/06/23 16:30:01;;;;;;;;;;;;;;;9.34;100.00;100317.00;4972407;28;19926;-81
2023/06/23 16:32:27;;;;;;;;;;;;;;;9.30;100.00;100326.78;4978724;28;20362;-80
2023/06/23 16:34:58;;;;;;;;;;;;;;;9.26;100.00;100333.94;4981678;28;19925;-80
2023/06/23 16:37:23;;;;;;;;;;;;;;;9.31;100.00;100331.19;4983358;28;19922;-81
2023/06/23 16:39:49;;;;;;;;;;;;;;;9.21;100.00;100333.22;4981437;28;19952;-81
2023/06/23 16:42:14;;;;;;;;;;;;;;;9.24;100.00;100329.63;4983823;28;19968;-81
2023/06/23 16:44:40;;;;;;;;;;;;;;;9.19;100.00;100329.78;4981187;28;20393;-81
2023/06/23 16:47:06;;;;;;;;;;;;;;;9.14;100.00;100331.66;4977682;28;20455;-80
2023/06/23 16:49:31;;;;;;;;;;;;;;;9.13;100.00;100329.94;4983760;28;20005;-81
2023/06/23 16:51:56;;;;;;;;;;;;;;;9.17;100.00;100331.56;4984668;28;19922;-82
2023/06/23 16:54:22;;;;;;;;;;;;;;;9.16;100.00;100326.31;4984996;28;20046;-80
2023/06/23 16:56:47;;;;;;;;;;;;;;;9.09;100.00;100333.56;4979124;28;19937;-80
2023/06/23 16:59:12;;;;;;;;;;;;;;;9.13;100.00;100329.06;4980681;28;19968;-80
2023/06/23 17:01:38;;;;;;;;;;;;;;;9.05;100.00;100327.50;4982407;28;19922;-80
2023/06/23 17:04:03;;;;;;;;;;;;;;;9.10;100.00;100332.66;4983244;28;19922;-80
2023/06/23 17:06:28;;;;;;;;;;;;;;;9.09;100.00;100323.88;4984921;28;19914;-80
2023/06/23 17:08:57;;;;;;;;;;;;;;;9.08;100.00;100331.84;4977058;28;19976;-79
2023/06/23 17:11:23;;;;;;;;;;;;;;;9.03;100.00;100333.72;4974340;28;19925;-79
2023/06/23 17:13:48;;;;;;;;;;;;;;;9.12;100.00;100328.19;4966548;28;19929;-80
2023/06/23 17:16:13;;;;;;;;;;;;;;;9.05;100.00;100335.44;4971210;28;19973;-80
2023/06/23 17:18:39;;;;;;;;;;;;;;;9.03;100.00;100339.00;4965147;28;19980;-85
2023/06/23 17:21:04;;;;;;;;;;;;;;;9.07;100.00;100336.25;4976671;28;19996;-80
2023/06/23 17:23:29;;;;;;;;;;;;;;;9.05;100.00;100342.50;4983369;28;20336;-79
2023/06/23 17:25:55;;;;;;;;;;;;;;;9.10;100.00;100351.16;4975740;28;19926;-80
2023/06/23 17:28:20;;;;;;;;;;;;;;;9.00;100.00;100349.66;4982582;28;19918;-80
2023/06/23 17:30:46;;;;;;;;;;;;;;;9.09;100.00;100350.31;4976050;28;20119;-80
2023/06/23 17:33:11;;;;;;;;;;;;;;;9.05;100.00;100351.28;4967838;28;19969;-81
2023/06/23 17:35:37;;;;;;;;;;;;;;;9.08;100.00;100356.50;4975313;28;19928;-81
2023/06/23 17:38:02;;;;;;;;;;;;;;;9.13;100.00;100361.66;4985559;28;19918;-88
2023/06/23 17:40:28;;;;;;;;;;;;;;;9.10;100.00;100359.09;4985236;28;20033;-84
2023/06/23 17:42:53;;;;;;;;;;;;;;;9.04;100.00;100352.19;4984332;28;19918;-89
2023/06/23 17:45:18;;;;;;;;;;;;;;;9.07;100.00;100361.81;4983530;28;19957;-87
2023/06/23 17:47:44;;;;;;;;;;;;;;;9.12;100.00;100364.34;4983010;28;19925;-84
2023/06/23 17:50:09;;;;;;;;;;;;;;;9.17;100.00;100362.44;4984194;28;19944;-84
2023/06/23 17:52:35;;;;;;;;;;;;;;;9.12;100.00;100367.84;4984096;28;19918;-87
2023/06/23 17:55:08;;;;;;;;;;;;;;;9.13;100.00;100368.75;4983474;28;19983;-89
2023/06/23 18:00:10;;;;;;;;;;;;;;;9.09;100.00;100360.00;4986009;23;20294;-90
2023/06/23 18:02:35;;;;;;;;;;;;;;;9.09;100.00;100354.72;4972917;28;19919;-89
2023/06/23 18:05:00;;;;;;;;;;;;;;;9.08;100.00;100359.13;4973127;28;19953;-89
2023/06/23 18:07:26;;;;;;;;;;;;;;;9.06;100.00;100360.97;4974327;28;19931;-86
2023/06/23 18:09:51;;;;;;;;;;;;;;;9.04;100.00;100367.19;4974221;28;19925;-85
2023/06/23 18:12:16;;;;;;;;;;;;;;;9.07;100.00;100369.75;4972256;28;20016;-89
2023/06/23 18:14:41;;;;;;;;;;;;;;;9.03;100.00;100373.38;4971254;28;19922;-84
2023/06/23 18:17:07;;;;;;;;;;;;;;;9.11;100.00;100378.47;4973889;28;20377;-86
2023/06/23 18:19:32;;;;;;;;;;;;;;;9.05;100.00;100374.22;4972904;28;19946;-87
2023/06/23 18:21:57;;;;;;;;;;;;;;;9.05;100.00;100371.59;4975144;28;19914;-85
2023/06/23 18:24:23;;;;;;;;;;;;;;;9.05;100.00;100368.94;4974344;28;19918;-86